Time;durP1;ratioP1;P1;durP2;ratioP2;P2;SDS_P1;SDS_P2;PMS_P1;PMS_P2;Temp;Humidity;BMP_temperature;BMP_pressure;BME280_temperature;BME280_humidity;BME280_pressure;Samples;Min_cycle;Max_cycle;Signal;HPM_P1;HPM_P2
2022/11/05 00:10:25;;;;;;;0.10;0.10;;;7.60;99.90;;;;;;5010206;28;20046;-89
2022/11/05 00:18:25;;;;;;;0.10;0.10;;;7.60;99.90;;;;;;5007282;28;20069;-91
2022/11/05 00:20:52;;;;;;;0.10;0.10;;;7.50;99.90;;;;;;4993219;28;20050;-90
2022/11/05 00:26:08;;;;;;;0.10;0.10;;;7.60;99.90;;;;;;5014449;28;20415;-89
2022/11/05 00:28:35;;;;;;;0.10;0.10;;;;;;;;;;4993559;28;20058;-88
2022/11/05 00:31:04;;;;;;;0.00;0.00;;;7.50;99.90;;;;;;4992613;28;20048;-90
2022/11/05 00:33:31;;;;;;;0.10;0.10;;;;;;;;;;5010889;28;20084;-90
2022/11/05 00:35:58;;;;;;;0.10;0.10;;;;;;;;;;5008549;28;20132;-89
2022/11/05 00:38:25;;;;;;;0.10;0.10;;;;;;;;;;5010135;28;20122;-89
2022/11/05 00:40:53;;;;;;;0.10;0.10;;;;;;;;;;5010454;28;20128;-90
2022/11/05 00:46:07;;;;;;;0.10;0.10;;;;;;;;;;5003821;28;20156;-89
2022/11/05 00:51:20;;;;;;;0.10;0.10;;;7.60;99.90;;;;;;5006778;28;20042;-90
2022/11/05 00:53:47;;;;;;;0.10;0.10;;;;;;;;;;5007019;28;20046;-89
2022/11/05 00:56:14;;;;;;;0.10;0.10;;;;;;;;;;4993872;28;20045;-89
2022/11/05 00:58:42;;;;;;;0.10;0.10;;;7.60;99.90;;;;;;5000211;28;20384;-88
2022/11/05 01:01:10;;;;;;;0.10;0.10;;;;;;;;;;5012655;28;20496;-90
2022/11/05 01:03:39;;;;;;;0.10;0.10;;;7.60;99.90;;;;;;4992078;28;20639;-88
2022/11/05 01:06:09;;;;;;;0.10;0.10;;;7.40;99.90;;;;;;4992038;28;20145;-90
2022/11/05 01:08:36;;;;;;;0.10;0.10;;;7.40;99.90;;;;;;4991949;28;20074;-92
2022/11/05 01:11:09;;;;;;;0.10;0.10;;;7.40;99.90;;;;;;5004997;28;20077;-90
2022/11/05 01:13:36;;;;;;;0.10;0.10;;;;;;;;;;4985843;28;20050;-89
2022/11/05 01:16:07;;;;;;;0.10;0.10;;;7.30;99.90;;;;;;4991350;28;20073;-90
2022/11/05 01:18:37;;;;;;;0.10;0.10;;;7.30;99.90;;;;;;4989711;28;20042;-90
2022/11/05 01:21:12;;;;;;;0.10;0.10;;;7.30;99.90;;;;;;4992103;28;20104;-89
2022/11/05 01:23:39;;;;;;;0.10;0.10;;;;;;;;;;5005892;28;20085;-90
2022/11/05 01:26:06;;;;;;;0.10;0.10;;;;;;;;;;4993446;28;20052;-90
2022/11/05 01:28:34;;;;;;;0.10;0.10;;;;;;;;;;4996911;28;20606;-91
2022/11/05 01:31:01;;;;;;;0.10;0.10;;;;;;;;;;5007995;28;20504;-89
2022/11/05 01:33:29;;;;;;;0.10;0.10;;;7.20;99.90;;;;;;4996903;28;20080;-90
2022/11/05 01:35:57;;;;;;;0.10;0.10;;;;;;;;;;4993709;28;20392;-91
2022/11/05 01:38:24;;;;;;;0.10;0.10;;;;;;;;;;4991498;28;21169;-90
2022/11/05 01:40:52;;;;;;;0.10;0.10;;;;;;;;;;5004526;28;20701;-91
2022/11/05 01:43:20;;;;;;;0.10;0.10;;;7.30;99.90;;;;;;4990324;28;20049;-90
2022/11/05 01:45:51;;;;;;;0.10;0.10;;;7.30;99.90;;;;;;5004349;28;20135;-90
2022/11/05 01:48:22;;;;;;;0.10;0.10;;;7.30;99.90;;;;;;4996919;28;20085;-89
2022/11/05 01:50:55;;;;;;;0.10;0.10;;;9.40;99.90;;;;;;5009389;28;20801;-89
2022/11/05 01:53:28;;;;;;;0.10;0.10;;;7.20;99.90;;;;;;5007553;28;20045;-89
2022/11/05 01:55:58;;;;;;;0.10;0.10;;;9.90;99.90;;;;;;5041735;22;20144;-83
2022/11/05 01:58:30;;;;;;;0.00;0.00;;;7.00;99.90;;;;;;5024572;28;20120;-83
2022/11/05 02:00:57;;;;;;;0.08;0.08;;;7.20;99.90;;;;;;5014850;28;20052;-83
2022/11/05 02:03:25;;;;;;;0.10;0.10;;;7.10;99.90;;;;;;5016359;28;20057;-83
2022/11/05 02:05:56;;;;;;;0.10;0.10;;;7.20;99.90;;;;;;5023094;28;20038;-85
2022/11/05 02:08:33;;;;;;;0.10;0.10;;;7.20;99.90;;;;;;4993315;28;20455;-84
2022/11/05 02:11:00;;;;;;;0.10;0.10;;;;;;;;;;5001838;28;20069;-85
2022/11/05 02:13:27;;;;;;;0.10;0.10;;;;;;;;;;5011127;28;20060;-83
2022/11/05 02:16:02;;;;;;;0.10;0.10;;;7.20;99.90;;;;;;5009188;28;20054;-83
2022/11/05 02:18:39;;;;;;;0.10;0.10;;;7.20;99.90;;;;;;4995263;28;20121;-84
2022/11/05 02:21:43;;;;;;;0.10;0.10;;;7.30;99.90;;;;;;4993735;28;20144;-84
2022/11/05 02:24:41;;;;;;;0.10;0.10;;;7.20;99.90;;;;;;4964971;28;20060;-83
2022/11/05 02:27:17;;;;;;;0.00;0.00;;;7.20;99.90;;;;;;5012002;28;20052;-84
2022/11/05 02:30:03;;;;;;;0.10;0.10;;;7.20;99.90;;;;;;5010882;28;20097;-83
2022/11/05 02:33:05;;;;;;;0.10;0.10;;;7.10;99.90;;;;;;4993944;28;20060;-84
2022/11/05 02:35:50;;;;;;;0.10;0.10;;;7.10;99.90;;;;;;5016078;28;20140;-83
2022/11/05 02:38:25;;;;;;;0.10;0.10;;;7.00;99.90;;;;;;5012768;28;20350;-83
2022/11/05 02:41:00;;;;;;;0.10;0.10;;;6.90;99.90;;;;;;5011913;28;20046;-83
2022/11/05 02:43:35;;;;;;;0.10;0.10;;;6.90;99.90;;;;;;5003825;28;20080;-83
2022/11/05 02:46:10;;;;;;;0.10;0.10;;;6.80;99.90;;;;;;5003855;28;20107;-83
2022/11/05 02:48:45;;;;;;;0.10;0.10;;;6.70;99.90;;;;;;5009211;28;20034;-83
2022/11/05 02:51:21;;;;;;;0.10;0.10;;;6.70;99.90;;;;;;5011032;28;20077;-83
2022/11/05 02:53:55;;;;;;;0.10;0.10;;;6.70;99.90;;;;;;5012686;28;20551;-83
2022/11/05 02:56:27;;;;;;;0.10;0.10;;;6.70;99.90;;;;;;5009346;28;20073;-84
2022/11/05 02:58:54;;;;;;;0.10;0.10;;;6.60;99.90;;;;;;4997855;28;20065;-83
2022/11/05 03:01:21;;;;;;;0.10;0.10;;;;;;;;;;5015694;28;20136;-84
2022/11/05 03:03:52;;;;;;;0.03;0.03;;;6.60;99.90;;;;;;5013228;28;20112;-83
2022/11/05 03:06:34;;;;;;;0.10;0.10;;;6.60;99.90;;;;;;5014025;28;20116;-85
2022/11/05 03:09:27;;;;;;;0.10;0.10;;;6.60;99.90;;;;;;5019961;28;20053;-83
2022/11/05 03:12:05;;;;;;;0.10;0.10;;;6.50;99.90;;;;;;5010466;28;20054;-83
2022/11/05 03:14:39;;;;;;;0.10;0.10;;;6.50;99.90;;;;;;5007766;28;20057;-83
2022/11/05 03:17:11;;;;;;;0.10;0.10;;;6.40;99.90;;;;;;5009061;28;20415;-85
2022/11/05 03:19:46;;;;;;;0.10;0.10;;;6.40;99.90;;;;;;5010854;28;20585;-84
2022/11/05 03:22:20;;;;;;;0.10;0.10;;;6.40;99.90;;;;;;4990529;28;20069;-84
2022/11/05 03:24:52;;;;;;;0.10;0.10;;;6.40;99.90;;;;;;5008051;28;20056;-83
2022/11/05 03:27:25;;;;;;;0.10;0.10;;;6.40;99.90;;;;;;5015752;28;20116;-82
2022/11/05 03:29:56;;;;;;;0.10;0.10;;;6.30;99.90;;;;;;4995185;28;20518;-83
2022/11/05 03:32:25;;;;;;;0.10;0.10;;;6.40;99.90;;;;;;5010791;28;20050;-84
2022/11/05 03:35:00;;;;;;;0.10;0.10;;;6.40;99.90;;;;;;4997732;28;20494;-83
2022/11/05 03:37:31;;;;;;;0.10;0.10;;;6.40;99.90;;;;;;4996562;28;20060;-84
2022/11/05 03:40:00;;;;;;;0.10;0.10;;;6.40;99.90;;;;;;5016374;28;20507;-83
2022/11/05 03:42:32;;;;;;;0.10;0.10;;;6.40;99.90;;;;;;5008376;28;20076;-85
2022/11/05 03:45:04;;;;;;;0.10;0.10;;;6.40;99.90;;;;;;5001869;28;20192;-84
2022/11/05 03:47:35;;;;;;;0.10;0.10;;;6.30;99.90;;;;;;5007464;28;20046;-85
2022/11/05 03:50:11;;;;;;;0.10;0.10;;;6.30;99.90;;;;;;5011644;28;20121;-85
2022/11/05 03:52:44;;;;;;;0.10;0.10;;;6.20;99.90;;;;;;5012594;28;20042;-83
2022/11/05 03:55:11;;;;;;;0.10;0.10;;;6.20;99.90;;;;;;5005607;28;20136;-83
2022/11/05 03:57:40;;;;;;;0.10;0.10;;;6.20;99.90;;;;;;5012472;28;20111;-85
2022/11/05 04:00:09;;;;;;;0.10;0.10;;;6.10;99.90;;;;;;5011091;28;20461;-82
2022/11/05 04:02:36;;;;;;;0.10;0.10;;;;;;;;;;4996513;28;20077;-85
2022/11/05 04:05:06;;;;;;;0.10;0.10;;;6.10;99.90;;;;;;5011623;28;20488;-83
2022/11/05 04:18:37;;;;;;;0.10;0.10;;;;;;;;;;4982704;28;20107;-84
2022/11/05 04:24:08;;;;;;;0.10;0.10;;;;;;;;;;5012950;28;20072;-82
2022/11/05 04:26:37;;;;;;;0.10;0.10;;;6.00;99.90;;;;;;5009281;28;20049;-85
2022/11/05 04:31:50;;;;;;;0.10;0.10;;;5.90;99.90;;;;;;5011471;28;20516;-85
2022/11/05 04:34:20;;;;;;;0.10;0.10;;;;;;;;;;5013800;28;20591;-83
2022/11/05 04:36:50;;;;;;;0.10;0.10;;;5.90;99.90;;;;;;5010814;28;20061;-83
2022/11/05 04:39:18;;;;;;;0.10;0.10;;;5.90;99.90;;;;;;5006818;28;20089;-83
2022/11/05 04:41:48;;;;;;;0.10;0.10;;;5.90;99.90;;;;;;4997598;28;20157;-83
2022/11/05 04:44:16;;;;;;;0.10;0.10;;;;;;;;;;5012817;28;20405;-83
2022/11/05 04:46:43;;;;;;;0.10;0.10;;;;;;;;;;4996558;28;20046;-83
2022/11/05 04:49:10;;;;;;;0.10;0.10;;;;;;;;;;5006719;28;20056;-85
2022/11/05 04:51:37;;;;;;;0.10;0.10;;;;;;;;;;5010527;28;20117;-83
2022/11/05 04:54:06;;;;;;;0.10;0.10;;;5.80;99.90;;;;;;5009736;28;20050;-82
2022/11/05 04:56:33;;;;;;;0.10;0.10;;;5.70;99.90;;;;;;4998599;28;20046;-83
2022/11/05 04:58:59;;;;;;;0.10;0.10;;;5.70;99.90;;;;;;5017038;28;20117;-83
2022/11/05 05:01:26;;;;;;;0.10;0.10;;;5.70;99.90;;;;;;4994492;28;20046;-83
2022/11/05 05:03:54;;;;;;;0.10;0.10;;;;;;;;;;4995368;28;20105;-84
2022/11/05 05:06:22;;;;;;;0.10;0.10;;;;;;;;;;4995259;28;20088;-82
2022/11/05 05:08:50;;;;;;;0.10;0.10;;;5.60;99.90;;;;;;5011998;28;20048;-83
2022/11/05 05:11:20;;;;;;;0.10;0.10;;;5.70;99.90;;;;;;5011359;28;20534;-83
2022/11/05 05:13:48;;;;;;;0.10;0.10;;;5.70;99.90;;;;;;4992671;28;20042;-83
2022/11/05 05:16:19;;;;;;;0.10;0.10;;;8.30;99.90;;;;;;5005096;28;20050;-83
2022/11/05 05:18:46;;;;;;;0.10;0.10;;;;;;;;;;4996799;28;20065;-82
2022/11/05 05:23:59;;;;;;;0.10;0.10;;;;;;;;;;5011197;28;20085;-83
2022/11/05 05:26:27;;;;;;;0.10;0.10;;;5.90;99.90;;;;;;4997433;28;20074;-82
2022/11/05 05:28:55;;;;;;;0.10;0.10;;;;;;;;;;5006394;28;20062;-83
2022/11/05 05:31:22;;;;;;;0.10;0.10;;;;;;;;;;4992161;28;20132;-83
2022/11/05 05:33:52;;;;;;;0.10;0.10;;;6.00;99.90;;;;;;5006840;28;20088;-85
2022/11/05 05:36:18;;;;;;;0.10;0.10;;;6.00;99.90;;;;;;4993558;28;20058;-83
2022/11/05 05:38:46;;;;;;;0.10;0.10;;;;;;;;;;5011414;28;20081;-83
2022/11/05 05:41:13;;;;;;;0.10;0.10;;;;;;;;;;5014201;28;20136;-84
2022/11/05 05:43:42;;;;;;;0.10;0.10;;;6.20;99.90;;;;;;4994038;28;20061;-84
2022/11/05 05:46:10;;;;;;;0.10;0.10;;;6.20;99.90;;;;;;5015578;28;20468;-83
2022/11/05 05:48:38;;;;;;;0.10;0.10;;;;;;;;;;5019945;28;20080;-83
2022/11/05 05:51:06;;;;;;;0.10;0.10;;;6.20;99.90;;;;;;5006183;28;20050;-84
2022/11/05 05:53:33;;;;;;;0.10;0.10;;;;;;;;;;5012074;28;20077;-83
2022/11/05 05:56:00;;;;;;;0.10;0.10;;;;;;;;;;5008312;28;20429;-85
2022/11/05 05:58:31;;;;;;;0.10;0.10;;;6.40;99.90;;;;;;5017153;28;20478;-83
2022/11/05 06:01:01;;;;;;;0.10;0.10;;;6.40;99.90;;;;;;5018083;28;20042;-84
2022/11/05 06:03:29;;;;;;;0.10;0.10;;;;;;;;;;5015367;28;20108;-83
2022/11/05 06:05:59;;;;;;;0.10;0.10;;;6.40;99.90;;;;;;5016738;28;20058;-83
2022/11/05 06:08:26;;;;;;;0.10;0.10;;;;;;;;;;5006172;28;20046;-83
2022/11/05 06:10:53;;;;;;;0.10;0.10;;;6.40;99.90;;;;;;5016081;28;20110;-83
2022/11/05 06:13:20;;;;;;;0.00;0.00;;;6.40;99.90;;;;;;5020191;28;20052;-83
2022/11/05 06:15:47;;;;;;;0.10;0.10;;;;;;;;;;5002092;28;20077;-83
2022/11/05 06:18:15;;;;;;;0.10;0.10;;;6.50;99.90;;;;;;5001552;28;20069;-83
2022/11/05 06:20:42;;;;;;;0.20;0.20;;;6.40;99.90;;;;;;5008375;28;20076;-83
2022/11/05 06:23:09;;;;;;;0.10;0.10;;;6.50;99.90;;;;;;5001421;28;20065;-83
2022/11/05 06:25:37;;;;;;;0.10;0.10;;;6.50;99.90;;;;;;5012925;28;20072;-83
2022/11/05 06:28:07;;;;;;;;;;;6.50;99.90;;;;;;5013097;28;20128;-83
2022/11/05 06:30:34;;;;;;;0.10;0.10;;;6.50;99.90;;;;;;5001364;28;20004;-83
2022/11/05 06:33:02;;;;;;;0.10;0.10;;;6.50;99.90;;;;;;5013041;28;20045;-84
2022/11/05 06:35:31;;;;;;;0.10;0.10;;;8.00;99.90;;;;;;4998343;28;20546;-83
2022/11/05 06:37:58;;;;;;;0.10;0.10;;;6.40;99.90;;;;;;5008059;28;20058;-83
2022/11/05 06:40:26;;;;;;;0.20;0.20;;;;;;;;;;5012127;28;20048;-83
2022/11/05 06:42:53;;;;;;;0.15;0.15;;;;;;;;;;5000275;28;20048;-86
2022/11/05 06:45:20;;;;;;;0.10;0.10;;;;;;;;;;5012661;28;20049;-83
2022/11/05 06:47:48;;;;;;;0.10;0.10;;;;;;;;;;4996365;28;20455;-83
2022/11/05 06:50:15;;;;;;;0.15;0.15;;;;;;;;;;5009007;28;20124;-83
2022/11/05 06:52:43;;;;;;;0.10;0.10;;;6.10;99.90;;;;;;5004866;28;20041;-85
2022/11/05 06:55:10;;;;;;;0.20;0.20;;;6.10;99.90;;;;;;5019515;28;20046;-85
2022/11/05 06:57:37;;;;;;;0.20;0.20;;;6.10;99.90;;;;;;5005180;28;20068;-83
2022/11/05 07:00:06;;;;;;;0.10;0.10;;;5.90;99.90;;;;;;5006961;28;20140;-85
2022/11/05 07:02:34;;;;;;;0.20;0.20;;;5.90;99.90;;;;;;5014388;28;20042;-83
2022/11/05 07:05:01;;;;;;;0.10;0.10;;;;;;;;;;5012631;28;20475;-84
2022/11/05 07:07:28;;;;;;;0.10;0.10;;;5.90;99.90;;;;;;5006850;28;20042;-84
2022/11/05 07:09:56;;;;;;;0.10;0.10;;;6.00;99.90;;;;;;5006305;28;20524;-83
2022/11/05 07:12:23;;;;;;;0.20;0.20;;;;;;;;;;5011822;28;20104;-82
2022/11/05 07:14:50;;;;;;;0.10;0.10;;;;;;;;;;5010556;28;20148;-83
2022/11/05 07:17:17;;;;;;;0.10;0.10;;;6.20;99.90;;;;;;4995511;28;20088;-83
2022/11/05 07:19:44;;;;;;;0.10;0.10;;;;;;;;;;5004996;28;20398;-84
2022/11/05 07:22:11;;;;;;;0.10;0.10;;;6.40;99.90;;;;;;5014545;28;20452;-84
2022/11/05 07:24:38;;;;;;;0.10;0.10;;;;;;;;;;5008847;28;20551;-85
2022/11/05 07:27:07;;;;;;;0.10;0.10;;;6.50;99.90;;;;;;5009051;28;20081;-84
2022/11/05 07:29:34;;;;;;;0.10;0.10;;;;;;;;;;4991622;28;20561;-85
2022/11/05 07:32:01;;;;;;;0.10;0.10;;;;;;;;;;5008324;28;20046;-84
2022/11/05 07:34:28;;;;;;;0.10;0.10;;;6.60;99.90;;;;;;5010455;28;20037;-84
2022/11/05 07:36:55;;;;;;;0.10;0.10;;;;;;;;;;5012011;28;20467;-85
2022/11/05 07:39:22;;;;;;;0.10;0.10;;;;;;;;;;5005971;28;20511;-84
2022/11/05 07:41:50;;;;;;;0.10;0.10;;;7.10;99.90;;;;;;5001720;28;20046;-83
2022/11/05 07:44:18;;;;;;;0.08;0.08;;;7.00;99.90;;;;;;5010305;28;20514;-85
2022/11/05 07:46:46;;;;;;;0.10;0.10;;;;;;;;;;4995408;28;20152;-85
2022/11/05 07:49:13;;;;;;;0.10;0.10;;;;;;;;;;5012242;28;20326;-84
2022/11/05 07:51:40;;;;;;;0.05;0.05;;;7.40;99.90;;;;;;5009151;28;20045;-84
2022/11/05 07:54:07;;;;;;;0.10;0.10;;;;;;;;;;5011114;28;20065;-85
2022/11/05 07:56:34;;;;;;;0.10;0.10;;;7.60;99.90;;;;;;5051799;22;20049;-84
2022/11/05 07:59:01;;;;;;;0.10;0.10;;;;;;;;;;5034920;28;20026;-83
2022/11/05 08:01:29;;;;;;;0.10;0.10;;;7.80;99.90;;;;;;5020180;28;20065;-82
2022/11/05 08:03:57;;;;;;;0.10;0.10;;;;;;;;;;5030375;28;20026;-83
2022/11/05 08:06:24;;;;;;;0.10;0.10;;;;;;;;;;5015780;28;20033;-82
2022/11/05 08:08:51;;;;;;;0.10;0.10;;;;;;;;;;5008129;28;20046;-84
2022/11/05 08:11:18;;;;;;;0.10;0.10;;;8.10;99.90;;;;;;5028416;28;20058;-82
2022/11/05 08:13:45;;;;;;;0.10;0.10;;;8.10;99.90;;;;;;5033380;28;20042;-81
2022/11/05 08:16:15;;;;;;;0.10;0.10;;;;;;;;;;5027989;28;20080;-83
2022/11/05 08:18:44;;;;;;;0.10;0.10;;;8.20;99.90;;;;;;5026120;28;20333;-81
2022/11/05 08:21:11;;;;;;;0.10;0.10;;;;;;;;;;5014309;28;20038;-83
2022/11/05 08:23:41;;;;;;;0.10;0.10;;;;;;;;;;5014636;28;20025;-84
2022/11/05 08:26:20;;;;;;;0.10;0.10;;;8.20;99.90;;;;;;5017335;28;20042;-88
2022/11/05 08:28:47;;;;;;;0.10;0.10;;;;;;;;;;5020276;28;20026;-84
2022/11/05 08:31:17;;;;;;;0.10;0.10;;;8.40;99.90;;;;;;5030332;28;20162;-82
2022/11/05 08:33:45;;;;;;;0.10;0.10;;;9.50;99.90;;;;;;5015323;28;20046;-85
2022/11/05 08:36:12;;;;;;;0.10;0.10;;;8.60;99.90;;;;;;5010866;28;20049;-82
2022/11/05 08:38:39;;;;;;;0.10;0.10;;;;;;;;;;5027809;28;20105;-83
2022/11/05 08:41:06;;;;;;;0.10;0.10;;;;;;;;;;5024372;28;20076;-81
2022/11/05 08:43:34;;;;;;;0.10;0.10;;;;;;;;;;5012987;28;21143;-84
2022/11/05 08:46:01;;;;;;;0.10;0.10;;;8.80;99.90;;;;;;5017262;28;20030;-80
2022/11/05 08:48:28;;;;;;;0.10;0.10;;;8.90;99.90;;;;;;4997709;28;20069;-83
2022/11/05 08:51:00;;;;;;;0.10;0.10;;;9.00;99.90;;;;;;5018469;28;20269;-82
2022/11/05 08:53:27;;;;;;;0.10;0.10;;;9.00;99.90;;;;;;5015988;28;20030;-84
2022/11/05 08:55:57;;;;;;;0.10;0.10;;;9.00;99.90;;;;;;5017776;28;20088;-82
2022/11/05 08:58:24;;;;;;;0.10;0.10;;;10.30;99.90;;;;;;5011672;28;20076;-85
2022/11/05 09:01:03;;;;;;;0.10;0.10;;;9.00;99.90;;;;;;5025512;28;20045;-82
2022/11/05 09:03:43;;;;;;;0.10;0.10;;;9.00;99.90;;;;;;5021321;28;20042;-85
2022/11/05 09:11:24;;;;;;;0.10;0.10;;;8.80;99.90;;;;;;5058324;28;20021;-79
2022/11/05 09:14:13;;;;;;;0.00;0.00;;;8.90;99.90;;;;;;5060496;28;20029;-82
2022/11/05 09:16:41;;;;;;;0.10;0.10;;;8.90;99.90;;;;;;5049469;28;20069;-84
2022/11/05 09:19:09;;;;;;;0.10;0.10;;;;;;;;;;5043248;28;20036;-82
2022/11/05 09:21:42;;;;;;;0.00;0.00;;;9.00;99.90;;;;;;5053027;28;20056;-79
2022/11/05 09:26:47;;;;;;;0.08;0.08;;;9.20;99.90;;;;;;5030438;28;20155;-87
2022/11/05 09:29:14;;;;;;;0.10;0.10;;;;;;;;;;5018670;28;20084;-87
2022/11/05 09:31:41;;;;;;;0.10;0.10;;;9.30;99.90;;;;;;5023838;28;20827;-86
2022/11/05 09:34:08;;;;;;;0.10;0.10;;;9.30;99.90;;;;;;5020458;28;20077;-87
2022/11/05 09:36:35;;;;;;;0.08;0.08;;;;;;;;;;5035352;28;20050;-87
2022/11/05 09:39:02;;;;;;;0.08;0.08;;;;;;;;;;5033998;28;20116;-87
2022/11/05 09:41:33;;;;;;;0.10;0.10;;;9.40;99.90;;;;;;5019825;28;20132;-88
2022/11/05 09:44:04;;;;;;;0.10;0.10;;;9.70;99.90;;;;;;5014051;28;20057;-84
2022/11/05 09:46:38;;;;;;;0.10;0.10;;;9.70;99.90;;;;;;5014331;28;20099;-85
2022/11/05 09:49:09;;;;;;;0.10;0.10;;;9.90;99.90;;;;;;5033859;28;20057;-87
2022/11/05 09:51:40;;;;;;;0.10;0.10;;;9.80;99.90;;;;;;5036231;28;20559;-85
2022/11/05 09:54:09;;;;;;;;;;;9.80;99.90;;;;;;5030757;28;20448;-86
2022/11/05 09:56:39;;;;;;;0.10;0.10;;;9.70;99.90;;;;;;5021935;28;19990;-86
2022/11/05 09:59:15;;;;;;;;;;;11.70;99.90;;;;;;5022565;28;20053;-88
2022/11/05 10:01:43;;;;;;;0.10;0.10;;;;;;;;;;5005082;28;20020;-87
2022/11/05 10:04:15;;;;;;;0.10;0.10;;;9.90;99.90;;;;;;5016146;28;20141;-86
2022/11/05 10:06:47;;;;;;;0.10;0.10;;;9.80;99.90;;;;;;5031795;28;20057;-88
2022/11/05 10:09:22;;;;;;;0.10;0.10;;;9.90;99.90;;;;;;5016247;28;20237;-86
2022/11/05 10:11:53;;;;;;;0.10;0.10;;;12.20;99.90;;;;;;5040426;28;20077;-86
2022/11/05 10:14:25;;;;;;;0.10;0.10;;;9.80;99.90;;;;;;5020388;28;20058;-87
2022/11/05 10:16:57;;;;;;;0.10;0.10;;;9.80;99.90;;;;;;5038347;28;20080;-86
2022/11/05 10:19:29;;;;;;;0.10;0.10;;;11.20;99.90;;;;;;5037942;28;20081;-86
2022/11/05 10:22:08;;;;;;;0.08;0.08;;;10.80;99.90;;;;;;5024426;28;20132;-86
2022/11/05 10:24:35;;;;;;;0.10;0.10;;;;;;;;;;5034546;28;20543;-87
2022/11/05 10:27:02;;;;;;;0.08;0.08;;;;;;;;;;5018408;28;20139;-86
2022/11/05 10:29:33;;;;;;;0.10;0.10;;;10.10;99.90;;;;;;5035931;28;20083;-85
2022/11/05 10:32:04;;;;;;;0.10;0.10;;;10.10;99.90;;;;;;5037820;28;20080;-88
2022/11/05 10:34:34;;;;;;;0.10;0.10;;;10.10;99.90;;;;;;5029543;28;20042;-86
2022/11/05 10:37:02;;;;;;;0.10;0.10;;;;;;;;;;5008776;28;20057;-87
2022/11/05 10:39:31;;;;;;;0.10;0.10;;;10.10;99.90;;;;;;5007087;28;20072;-91
2022/11/05 10:42:19;;;;;;;0.10;0.10;;;10.10;99.90;;;;;;5012706;28;20500;-87
2022/11/05 10:44:57;;;;;;;0.08;0.08;;;10.00;99.90;;;;;;5025966;28;20073;-87
2022/11/05 10:47:43;;;;;;;0.10;0.10;;;11.90;99.90;;;;;;5011795;28;20431;-87
2022/11/05 10:50:12;;;;;;;0.10;0.10;;;10.00;99.90;;;;;;5014731;28;20049;-87
2022/11/05 10:52:47;;;;;;;0.10;0.10;;;9.80;99.90;;;;;;5033155;28;20270;-89
2022/11/05 10:55:19;;;;;;;0.00;0.00;;;9.80;99.90;;;;;;5029557;28;20077;-88
2022/11/05 10:57:48;;;;;;;0.10;0.10;;;9.90;99.90;;;;;;5019533;28;20046;-87
2022/11/05 11:00:27;;;;;;;0.10;0.10;;;9.80;99.90;;;;;;5031289;28;20060;-88
2022/11/05 11:02:57;;;;;;;0.10;0.10;;;10.00;99.90;;;;;;5020011;28;20076;-88
2022/11/05 11:05:27;;;;;;;0.03;0.03;;;10.00;99.90;;;;;;5019495;28;20116;-88
2022/11/05 11:08:00;;;;;;;0.10;0.10;;;9.90;99.90;;;;;;5030699;28;20900;-86
2022/11/05 11:10:31;;;;;;;0.10;0.10;;;9.90;99.90;;;;;;5008771;28;20163;-87
2022/11/05 11:12:58;;;;;;;0.10;0.10;;;;;;;;;;5025592;28;20351;-87
2022/11/05 11:15:31;;;;;;;0.10;0.10;;;9.90;99.90;;;;;;5036335;28;20081;-87
2022/11/05 11:17:58;;;;;;;0.10;0.10;;;;;;;;;;5035872;28;20045;-87
2022/11/05 11:20:28;;;;;;;0.10;0.10;;;9.90;99.90;;;;;;5021881;28;20054;-86
2022/11/05 11:23:04;;;;;;;0.10;0.10;;;9.90;99.90;;;;;;5006249;28;20468;-88
2022/11/05 11:25:39;;;;;;;0.10;0.10;;;9.90;99.90;;;;;;5024741;28;20464;-87
2022/11/05 11:28:13;;;;;;;0.10;0.10;;;10.10;99.90;;;;;;5010823;28;20096;-86
2022/11/05 11:30:49;;;;;;;0.00;0.00;;;10.10;99.90;;;;;;5012669;28;20115;-87
2022/11/05 11:33:21;;;;;;;0.00;0.00;;;10.20;99.90;;;;;;5002755;28;20137;-89
2022/11/05 11:35:48;;;;;;;0.10;0.10;;;;;;;;;;5024606;28;20069;-87
2022/11/05 11:38:15;;;;;;;0.10;0.10;;;;;;;;;;5028899;28;20130;-86
2022/11/05 11:40:43;;;;;;;0.10;0.10;;;10.20;99.90;;;;;;5010508;28;20131;-86
2022/11/05 11:43:22;;;;;;;0.00;0.00;;;10.20;99.90;;;;;;5015897;28;20331;-85
2022/11/05 11:45:53;;;;;;;0.10;0.10;;;13.10;99.90;;;;;;5008567;28;20065;-85
2022/11/05 11:48:24;;;;;;;0.10;0.10;;;10.20;99.90;;;;;;5030941;28;20123;-84
2022/11/05 11:50:51;;;;;;;0.10;0.10;;;;;;;;;;5014000;28;20045;-85
2022/11/05 11:53:32;;;;;;;0.10;0.10;;;10.30;99.90;;;;;;5012774;28;20082;-85
2022/11/05 11:56:03;;;;;;;0.10;0.10;;;10.30;99.90;;;;;;5029989;28;20077;-84
2022/11/05 11:58:42;;;;;;;0.10;0.10;;;10.30;99.90;;;;;;5021573;28;20112;-85
2022/11/05 12:01:50;;;;;;;0.10;0.10;;;11.70;99.90;;;;;;5010841;28;20049;-86
2022/11/05 12:04:43;;;;;;;0.10;0.10;;;10.40;99.90;;;;;;5027191;28;20045;-85
2022/11/05 12:07:26;;;;;;;0.10;0.10;;;10.50;99.90;;;;;;5004754;28;20080;-85
2022/11/05 12:10:03;;;;;;;0.10;0.10;;;10.60;99.90;;;;;;5018610;28;20100;-84
2022/11/05 12:12:37;;;;;;;0.10;0.10;;;11.10;99.90;;;;;;5038686;28;20140;-87
2022/11/05 12:15:23;;;;;;;0.10;0.10;;;10.60;99.90;;;;;;5008627;28;20043;-85
2022/11/05 12:17:57;;;;;;;0.10;0.10;;;10.60;99.90;;;;;;5026493;28;20048;-86
2022/11/05 12:20:44;;;;;;;0.10;0.10;;;10.60;99.90;;;;;;5010214;28;20080;-87
2022/11/05 12:23:53;;;;;;;0.10;0.10;;;10.70;99.90;;;;;;5025776;28;20063;-87
2022/11/05 12:26:28;;;;;;;0.10;0.10;;;10.70;99.90;;;;;;4985082;28;20046;-85
2022/11/05 12:29:17;;;;;;;0.10;0.10;;;10.70;99.90;;;;;;5020198;28;20030;-85
2022/11/05 12:31:55;;;;;;;0.00;0.00;;;10.70;99.90;;;;;;5022532;28;20048;-84
2022/11/05 12:34:40;;;;;;;0.00;0.00;;;10.80;99.90;;;;;;5022588;28;20120;-85
2022/11/05 12:37:21;;;;;;;0.00;0.00;;;12.90;99.90;;;;;;5000233;28;20041;-85
2022/11/05 12:40:01;;;;;;;0.10;0.10;;;10.70;99.90;;;;;;5017067;28;20557;-85
2022/11/05 12:42:41;;;;;;;0.00;0.00;;;10.70;99.90;;;;;;5031837;28;20156;-84
2022/11/05 12:45:14;;;;;;;;;;;10.70;99.90;;;;;;5016662;28;20084;-85
2022/11/05 12:47:55;;;;;;;0.00;0.00;;;10.70;99.90;;;;;;5021901;28;19925;-84
2022/11/05 12:50:31;;;;;;;0.00;0.00;;;10.70;99.90;;;;;;5029939;28;20047;-85
2022/11/05 12:53:36;;;;;;;0.10;0.10;;;10.70;99.90;;;;;;5013142;28;20054;-86
2022/11/05 12:56:11;;;;;;;0.10;0.10;;;10.70;99.90;;;;;;4987703;28;20083;-85
2022/11/05 12:58:43;;;;;;;0.10;0.10;;;10.60;99.90;;;;;;5021718;28;20038;-88
2022/11/05 13:01:15;;;;;;;0.10;0.10;;;10.60;99.90;;;;;;5030892;28;20056;-86
2022/11/05 13:03:47;;;;;;;0.10;0.10;;;10.70;99.90;;;;;;5011404;28;20053;-85
2022/11/05 13:06:20;;;;;;;0.10;0.10;;;10.70;99.90;;;;;;5028624;28;20068;-85
2022/11/05 13:08:55;;;;;;;0.00;0.00;;;10.70;99.90;;;;;;5027395;28;20077;-85
2022/11/05 13:11:27;;;;;;;0.10;0.10;;;10.70;99.90;;;;;;5017498;28;20553;-85
2022/11/05 13:14:03;;;;;;;0.10;0.10;;;10.60;99.90;;;;;;5033093;28;20099;-84
2022/11/05 13:16:34;;;;;;;0.00;0.00;;;10.70;99.90;;;;;;5012676;28;20041;-85
2022/11/05 13:19:10;;;;;;;0.10;0.10;;;6.90;99.90;;;;;;5009652;28;20436;-88
2022/11/05 13:21:40;;;;;;;0.10;0.10;;;12.40;99.90;;;;;;5007619;28;20045;-86
2022/11/05 13:24:11;;;;;;;;;;;10.70;99.90;;;;;;5032850;28;20076;-86
2022/11/05 13:26:45;;;;;;;0.10;0.10;;;10.70;99.90;;;;;;5010966;28;19992;-85
2022/11/05 13:29:17;;;;;;;0.10;0.10;;;10.70;99.90;;;;;;5010706;28;20594;-84
2022/11/05 13:31:49;;;;;;;0.03;0.03;;;10.70;99.90;;;;;;5009714;28;20049;-86
2022/11/05 13:34:17;;;;;;;0.10;0.10;;;;;;;;;;5012756;28;20107;-86
2022/11/05 13:39:44;;;;;;;0.10;0.10;;;10.60;99.90;;;;;;5031302;28;20045;-85
2022/11/05 13:42:53;;;;;;;0.00;0.00;;;10.60;99.90;;;;;;5012108;28;20084;-85
2022/11/05 13:45:47;;;;;;;0.10;0.10;;;10.60;99.90;;;;;;5006049;28;20411;-85
2022/11/05 13:48:37;;;;;;;0.00;0.00;;;10.80;99.90;;;;;;5023560;28;20054;-84
2022/11/05 13:51:28;;;;;;;0.00;0.00;;;10.70;99.90;;;;;;5017938;28;20048;-85
2022/11/05 13:54:19;;;;;;;0.05;0.05;;;10.80;99.90;;;;;;5014607;28;20057;-84
2022/11/05 13:57:02;;;;;;;0.10;0.10;;;10.80;99.90;;;;;;5013373;28;20072;-85
2022/11/05 13:59:58;;;;;;;0.03;0.03;;;10.80;99.90;;;;;;5028961;28;20131;-85
2022/11/05 14:02:34;;;;;;;0.00;0.00;;;10.90;99.90;;;;;;5015714;28;20060;-87
2022/11/05 14:05:01;;;;;;;0.00;0.00;;;;;;;;;;5036587;28;20144;-85
2022/11/05 14:07:31;;;;;;;0.00;0.00;;;11.00;99.90;;;;;;5038602;28;20099;-86
2022/11/05 14:10:16;;;;;;;0.00;0.00;;;11.00;99.90;;;;;;5038188;28;20049;-85
2022/11/05 14:12:48;;;;;;;0.00;0.00;;;11.00;99.90;;;;;;5024272;28;20061;-87
2022/11/05 14:15:19;;;;;;;0.00;0.00;;;11.00;99.90;;;;;;5035204;28;20045;-86
2022/11/05 14:17:58;;;;;;;0.00;0.00;;;11.10;99.90;;;;;;5030417;28;20064;-86
2022/11/05 14:20:40;;;;;;;0.00;0.00;;;11.10;99.90;;;;;;5033729;28;20111;-86
2022/11/05 14:23:37;;;;;;;0.00;0.00;;;11.10;99.90;;;;;;5015557;28;20296;-87
2022/11/05 14:26:17;;;;;;;0.00;0.00;;;11.10;99.90;;;;;;5019112;28;20077;-86
2022/11/05 14:28:49;;;;;;;0.00;0.00;;;11.10;99.90;;;;;;5022589;28;20042;-83
2022/11/05 14:31:23;;;;;;;0.00;0.00;;;11.10;99.90;;;;;;5036583;28;20478;-85
2022/11/05 14:34:38;;;;;;;0.00;0.00;;;11.20;99.90;;;;;;5020642;28;20053;-84
2022/11/05 14:37:31;;;;;;;0.10;0.10;;;10.80;99.90;;;;;;5025174;28;20033;-83
2022/11/05 14:40:25;;;;;;;0.10;0.10;;;11.10;99.90;;;;;;5052819;28;20054;-83